Time,TemperatureF,DewpointF,PressureIn,WindDirection,WindDirectionDegrees,WindSpeedMPH,WindSpeedGustMPH,Humidity,HourlyPrecipIn,Conditions,Clouds,dailyrainin,SoftwareType,DateUTC
2013-03-03 00:03:00,-999.0,-99.9,29.59,ESE,114,3.8,5.8,-999,0.00,,,0.00,WSDL version 420,2013-03-03 06:03:00,
2013-03-03 00:09:00,40.5,17.5,29.59,ESE,110,5.4,6.3,39,-99.99,,,-99.99,WSDL version 420,2013-03-03 06:09:00,
2013-03-03 00:15:00,40.5,17.5,29.56,East,94,5.2,7.4,39,0.00,,,0.00,WSDL version 420,2013-03-03 06:15:00,
2013-03-03 00:21:00,40.1,17.3,29.56,ESE,103,5.6,7.4,40,0.00,,,0.00,WSDL version 420,2013-03-03 06:21:00,
2013-03-03 00:27:00,39.9,17.6,29.56,ESE,111,5.1,8.1,40,0.00,,,0.00,WSDL version 420,2013-03-03 06:27:00,
2013-03-03 00:33:00,39.7,17.4,29.53,ESE,109,5.5,8.1,40,0.00,,,0.00,WSDL version 420,2013-03-03 06:33:00,
2013-03-03 00:39:00,39.7,17.4,29.53,ESE,110,4.4,6.5,40,0.00,,,0.00,WSDL version 420,2013-03-03 06:39:00,
2013-03-03 00:45:00,39.7,17.3,29.53,ESE,103,5.3,7.2,40,0.00,,,0.00,WSDL version 420,2013-03-03 06:45:00,
2013-03-03 00:51:00,39.6,17.2,29.53,ESE,108,4.7,7.2,40,0.00,,,0.00,WSDL version 420,2013-03-03 06:51:00,
2013-03-03 00:57:00,39.7,17.3,29.53,ESE,121,6.6,9.4,40,0.00,,,0.00,WSDL version 420,2013-03-03 06:57:00,
2013-03-03 01:03:00,39.6,17.2,29.53,ESE,121,5.9,9.4,40,0.00,,,0.00,WSDL version 420,2013-03-03 07:03:00,
2013-03-03 01:09:00,39.5,17.2,29.53,ESE,122,5.3,6.9,40,0.00,,,0.00,WSDL version 420,2013-03-03 07:09:00,
2013-03-03 01:15:00,39.4,17.1,29.56,ESE,122,6.0,6.9,40,0.00,,,0.00,WSDL version 420,2013-03-03 07:15:00,
2013-03-03 01:21:00,39.3,17.6,29.56,SE,125,6.9,8.1,41,-99.99,,,-99.99,WSDL version 420,2013-03-03 07:21:00,
2013-03-03 01:27:00,39.3,17.5,29.56,SE,131,7.0,8.7,41,0.00,,,0.00,WSDL version 420,2013-03-03 07:27:00,
2013-03-03 01:33:00,39.0,17.9,29.56,SE,131,6.7,8.5,42,0.00,,,0.00,WSDL version 420,2013-03-03 07:33:00,
2013-03-03 01:39:00,38.9,18.8,29.56,SE,131,6.2,8.1,45,0.00,,,0.00,WSDL version 420,2013-03-03 07:39:00,
2013-03-03 01:45:00,38.8,20.1,29.56,ESE,115,5.6,7.8,47,0.00,,,0.00,WSDL version 420,2013-03-03 07:45:00,
2013-03-03 01:51:00,38.9,20.4,29.56,ESE,122,6.3,8.9,47,0.00,,,0.00,WSDL version 420,2013-03-03 07:51:00,
2013-03-03 01:57:00,38.8,20.5,29.56,SE,125,7.0,8.9,48,0.00,,,0.00,WSDL version 420,2013-03-03 07:57:00,
2013-03-03 02:03:00,38.9,20.9,29.56,SE,125,7.4,10.3,48,0.00,,,0.00,WSDL version 420,2013-03-03 08:03:00,
2013-03-03 02:09:00,38.8,21.2,29.56,ESE,121,6.9,10.3,49,0.00,,,0.00,WSDL version 420,2013-03-03 08:09:00,
2013-03-03 02:15:00,38.8,21.6,29.53,ESE,108,6.5,7.8,50,0.00,,,0.00,WSDL version 420,2013-03-03 08:15:00,
2013-03-03 02:21:00,38.3,20.8,29.53,South,173,2.2,7.8,49,0.00,,,0.00,WSDL version 420,2013-03-03 08:21:00,
2013-03-03 02:27:00,37.4,19.5,29.53,South,189,2.2,3.1,48,0.00,,,0.00,WSDL version 420,2013-03-03 08:27:00,
2013-03-03 02:33:00,36.9,19.0,29.56,South,181,2.4,3.1,48,0.00,,,0.00,WSDL version 420,2013-03-03 08:33:00,
2013-03-03 02:39:00,36.6,19.4,29.56,SE,135,1.4,3.6,50,0.00,,,0.00,WSDL version 420,2013-03-03 08:39:00,
2013-03-03 02:45:00,37.0,20.1,29.56,ESE,119,2.9,3.8,50,-99.99,,,-99.99,WSDL version 420,2013-03-03 08:45:00,
2013-03-03 02:51:00,36.9,19.4,29.56,South,181,2.3,3.8,49,0.00,,,0.00,WSDL version 420,2013-03-03 08:51:00,
2013-03-03 02:57:00,36.5,18.8,29.56,South,188,2.2,3.6,48,0.00,,,0.00,WSDL version 420,2013-03-03 08:57:00,
2013-03-03 03:03:00,36.0,18.1,29.56,South,186,2.4,3.6,48,0.00,,,0.00,WSDL version 420,2013-03-03 09:03:00,
2013-03-03 03:09:00,35.6,17.9,29.56,SSW,193,2.8,3.4,49,0.00,,,0.00,WSDL version 420,2013-03-03 09:09:00,
2013-03-03 03:15:00,35.3,18.0,29.56,SSE,160,2.7,3.4,49,0.00,,,0.00,WSDL version 420,2013-03-03 09:15:00,
2013-03-03 03:21:00,35.7,18.9,29.56,SSE,153,2.5,3.6,50,0.00,,,0.00,WSDL version 420,2013-03-03 09:21:00,
2013-03-03 03:27:00,35.6,18.3,29.56,SE,136,1.3,3.6,49,0.00,,,0.00,WSDL version 420,2013-03-03 09:27:00,
2013-03-03 03:33:00,35.8,18.7,29.56,SE,135,1.9,3.6,49,0.00,,,0.00,WSDL version 420,2013-03-03 09:33:00,
2013-03-03 03:39:00,-999.0,-99.9,29.56,SSE,148,3.4,5.6,-999,0.00,,,0.00,WSDL version 420,2013-03-03 09:39:00,
2013-03-03 03:45:00,36.1,18.8,29.56,SE,125,2.4,4.9,49,0.00,,,0.00,WSDL version 420,2013-03-03 09:45:00,
2013-03-03 03:52:00,36.3,19.0,29.56,ESE,121,3.2,4.3,49,0.00,,,0.00,WSDL version 420,2013-03-03 09:52:00,
2013-03-03 03:58:00,36.2,18.9,29.53,SE,142,2.7,4.9,49,0.00,,,0.00,WSDL version 420,2013-03-03 09:58:00,
2013-03-03 04:04:00,35.8,18.5,29.53,SE,136,2.2,4.9,49,0.00,,,0.00,WSDL version 420,2013-03-03 10:04:00,
2013-03-03 04:10:00,35.7,18.9,29.53,SE,128,2.5,3.6,50,0.00,,,0.00,WSDL version 420,2013-03-03 10:10:00,
2013-03-03 04:16:00,35.8,18.9,29.53,ESE,116,5.1,6.3,49,0.00,,,0.00,WSDL version 420,2013-03-03 10:16:00,
2013-03-03 04:22:00,36.3,18.9,29.53,ESE,121,5.1,7.4,49,0.00,,,0.00,WSDL version 420,2013-03-03 10:22:00,
2013-03-03 04:28:00,36.4,18.9,29.53,ESE,103,4.4,7.4,48,0.00,,,0.00,WSDL version 420,2013-03-03 10:28:00,
2013-03-03 04:34:00,36.7,18.5,29.53,ESE,122,6.4,8.7,47,-99.99,,,-99.99,WSDL version 420,2013-03-03 10:34:00,
2013-03-03 04:40:00,37.2,18.2,29.53,ESE,114,7.5,9.8,45,0.00,,,0.00,WSDL version 420,2013-03-03 10:40:00,
2013-03-03 04:46:00,37.3,17.9,29.53,SE,133,7.8,9.8,45,0.00,,,0.00,WSDL version 420,2013-03-03 10:46:00,
2013-03-03 04:52:00,37.0,18.2,29.53,ESE,121,6.8,8.9,46,0.00,,,0.00,WSDL version 420,2013-03-03 10:52:00,
2013-03-03 04:58:00,36.7,18.4,29.53,ESE,121,6.5,8.9,47,0.00,,,0.00,WSDL version 420,2013-03-03 10:58:00,
2013-03-03 05:04:00,36.7,19.0,29.50,ESE,112,7.2,8.7,49,0.00,,,0.00,WSDL version 420,2013-03-03 11:04:00,
2013-03-03 05:10:00,36.7,19.6,29.50,ESE,119,7.7,9.8,50,0.00,,,0.00,WSDL version 420,2013-03-03 11:10:00,
2013-03-03 05:16:00,36.5,19.7,29.53,ESE,114,9.2,11.0,50,0.00,,,0.00,WSDL version 420,2013-03-03 11:16:00,
2013-03-03 05:22:00,36.3,19.5,29.53,ESE,115,8.7,10.3,50,0.00,,,0.00,WSDL version 420,2013-03-03 11:22:00,
2013-03-03 05:28:00,36.3,19.5,29.53,ESE,121,6.4,9.8,50,0.00,,,0.00,WSDL version 420,2013-03-03 11:28:00,
2013-03-03 05:34:00,36.5,19.6,29.53,ESE,110,5.5,8.9,50,0.00,,,0.00,WSDL version 420,2013-03-03 11:34:00,
2013-03-03 05:40:00,36.7,19.8,29.53,ESE,120,7.1,10.1,50,0.00,,,0.00,WSDL version 420,2013-03-03 11:40:00,
2013-03-03 05:46:00,36.6,19.7,29.50,SE,133,3.8,8.5,50,0.00,,,0.00,WSDL version 420,2013-03-03 11:46:00,
2013-03-03 05:52:00,36.1,19.3,29.50,South,183,3.7,7.4,50,0.00,,,0.00,WSDL version 420,2013-03-03 11:52:00,
2013-03-03 05:58:00,35.8,19.0,29.50,SE,135,4.5,7.4,50,0.00,,,0.00,WSDL version 420,2013-03-03 11:58:00,
2013-03-03 06:04:00,35.8,19.5,29.50,South,181,3.4,7.6,51,0.00,,,0.00,WSDL version 420,2013-03-03 12:04:00,
2013-03-03 06:10:00,36.0,19.9,29.50,South,190,3.9,7.2,52,0.00,,,0.00,WSDL version 420,2013-03-03 12:10:00,
2013-03-03 06:16:00,35.9,20.2,29.50,SE,144,3.9,7.2,53,0.00,,,0.00,WSDL version 420,2013-03-03 12:16:00,
2013-03-03 06:22:00,35.8,20.3,29.50,South,173,4.7,7.2,53,0.00,,,0.00,WSDL version 420,2013-03-03 12:22:00,
2013-03-03 06:28:00,35.6,20.4,29.50,South,184,6.1,7.4,54,0.00,,,0.00,WSDL version 420,2013-03-03 12:28:00,
2013-03-03 06:34:00,35.4,21.0,29.50,South,173,6.0,8.5,56,0.00,,,0.00,WSDL version 420,2013-03-03 12:34:00,
2013-03-03 06:40:00,35.4,21.2,29.50,South,170,4.9,8.5,56,0.00,,,0.00,WSDL version 420,2013-03-03 12:40:00,
2013-03-03 06:46:00,35.4,21.7,29.50,SSE,160,4.4,8.7,57,0.00,,,0.00,WSDL version 420,2013-03-03 12:46:00,
2013-03-03 06:52:00,35.4,21.3,29.50,South,174,5.9,8.7,56,0.00,,,0.00,WSDL version 420,2013-03-03 12:52:00,
2013-03-03 06:58:00,35.5,21.3,29.50,SSE,157,6.0,7.8,56,0.00,,,0.00,WSDL version 420,2013-03-03 12:58:00,
2013-03-03 07:04:00,36.1,21.8,29.50,South,175,6.3,8.5,55,0.00,,,0.00,WSDL version 420,2013-03-03 13:04:00,
2013-03-03 07:10:00,36.5,21.7,29.50,South,170,6.7,8.1,54,0.00,,,0.00,WSDL version 420,2013-03-03 13:10:00,
2013-03-03 07:16:00,37.5,22.4,29.50,South,184,6.8,11.9,54,0.00,,,0.00,WSDL version 420,2013-03-03 13:16:00,
2013-03-03 07:22:00,38.8,22.7,29.50,South,189,6.8,11.9,51,0.00,,,0.00,WSDL version 420,2013-03-03 13:22:00,
2013-03-03 07:28:00,40.3,23.1,29.50,South,184,6.9,10.3,49,0.00,,,0.00,WSDL version 420,2013-03-03 13:28:00,
2013-03-03 07:34:00,41.4,23.3,29.50,South,183,7.2,10.7,48,0.00,,,0.00,WSDL version 420,2013-03-03 13:34:00,
2013-03-03 07:40:00,42.8,23.2,29.50,South,190,6.2,10.7,44,0.00,,,0.00,WSDL version 420,2013-03-03 13:40:00,
2013-03-03 07:46:00,43.8,22.9,29.53,South,189,7.2,10.1,42,0.00,,,0.00,WSDL version 420,2013-03-03 13:46:00,
2013-03-03 07:52:00,44.2,22.5,29.53,South,170,6.7,12.3,41,0.00,,,0.00,WSDL version 420,2013-03-03 13:52:00,
2013-03-03 07:58:00,45.1,22.4,29.53,SSE,159,5.8,12.3,40,0.00,,,0.00,WSDL version 420,2013-03-03 13:58:00,
2013-03-03 08:04:00,46.0,22.8,29.50,South,170,8.7,11.0,39,0.00,,,0.00,WSDL version 420,2013-03-03 14:04:00,
2013-03-03 08:10:00,46.9,22.9,29.50,SSE,167,9.5,12.5,38,0.00,,,0.00,WSDL version 420,2013-03-03 14:10:00,
2013-03-03 08:16:00,48.0,23.6,29.50,SSW,193,8.8,12.5,38,0.00,,,0.00,WSDL version 420,2013-03-03 14:16:00,
2013-03-03 08:22:00,49.0,23.9,29.50,SSW,196,8.9,12.5,37,0.00,,,0.00,WSDL version 420,2013-03-03 14:22:00,
2013-03-03 08:28:00,49.9,24.4,29.50,South,176,8.2,12.5,36,0.00,,,0.00,WSDL version 420,2013-03-03 14:28:00,
2013-03-03 08:34:00,50.9,24.5,29.50,South,186,9.2,12.5,35,0.00,,,0.00,WSDL version 420,2013-03-03 14:34:00,
2013-03-03 08:40:00,51.2,23.6,29.50,South,180,10.5,15.2,33,0.00,,,0.00,WSDL version 420,2013-03-03 14:40:00,
2013-03-03 08:46:00,52.3,24.1,29.47,South,180,9.4,15.2,33,0.00,,,0.00,WSDL version 420,2013-03-03 14:46:00,
2013-03-03 08:52:00,51.9,23.0,29.47,SSW,193,10.1,14.8,32,0.00,,,0.00,WSDL version 420,2013-03-03 14:52:00,
2013-03-03 08:58:00,52.7,23.1,29.47,South,170,10.3,14.8,32,0.00,,,0.00,WSDL version 420,2013-03-03 14:58:00,
2013-03-03 09:04:00,53.1,23.2,29.50,SSW,195,10.6,16.3,31,0.00,,,0.00,WSDL version 420,2013-03-03 15:04:00,
2013-03-03 09:10:00,53.2,23.2,29.50,South,173,7.5,16.3,30,0.00,,,0.00,WSDL version 420,2013-03-03 15:10:00,
2013-03-03 09:16:00,54.3,23.6,29.50,South,185,12.6,17.2,30,0.00,,,0.00,WSDL version 420,2013-03-03 15:16:00,
2013-03-03 09:22:00,55.7,24.0,29.50,South,190,10.3,17.2,29,0.00,,,0.00,WSDL version 420,2013-03-03 15:22:00,
2013-03-03 09:28:00,56.4,24.5,29.50,South,179,10.9,17.0,29,0.00,,,0.00,WSDL version 420,2013-03-03 15:28:00,
2013-03-03 09:34:00,57.4,25.0,29.50,SSW,196,9.0,14.5,28,0.00,,,0.00,WSDL version 420,2013-03-03 15:34:00,
2013-03-03 09:40:00,59.2,26.2,29.50,South,185,6.9,14.3,28,0.00,,,0.00,WSDL version 420,2013-03-03 15:40:00,
2013-03-03 09:46:00,59.9,25.9,29.50,South,186,10.9,15.4,27,0.00,,,0.00,WSDL version 420,2013-03-03 15:46:00,
2013-03-03 09:52:00,59.9,25.1,29.50,South,187,14.1,18.6,26,0.00,,,0.00,WSDL version 420,2013-03-03 15:52:00,
2013-03-03 09:58:00,60.0,25.1,29.50,South,183,13.1,18.8,26,0.00,,,0.00,WSDL version 420,2013-03-03 15:58:00,
2013-03-03 10:04:00,-999.0,-99.9,29.50,SSW,202,12.3,18.8,-999,-99.99,,,-99.99,WSDL version 420,2013-03-03 16:04:00,
2013-03-03 10:10:00,60.4,25.4,29.50,SSW,193,8.6,16.3,26,0.00,,,0.00,WSDL version 420,2013-03-03 16:10:00,
2013-03-03 10:16:00,61.6,25.5,29.50,SSW,196,11.0,15.4,25,0.00,,,0.00,WSDL version 420,2013-03-03 16:16:00,
2013-03-03 10:22:00,61.8,25.6,29.50,SSW,193,15.5,18.8,25,0.00,,,0.00,WSDL version 420,2013-03-03 16:22:00,
2013-03-03 10:28:00,62.2,26.0,29.50,SSW,205,14.4,20.1,25,0.00,,,0.00,WSDL version 420,2013-03-03 16:28:00,
2013-03-03 10:34:00,61.8,25.6,29.47,SSW,196,14.8,20.6,25,0.00,,,0.00,WSDL version 420,2013-03-03 16:34:00,
2013-03-03 10:40:00,62.0,25.8,29.47,SSW,197,12.7,20.6,25,0.00,,,0.00,WSDL version 420,2013-03-03 16:40:00,
2013-03-03 10:46:00,62.6,25.6,29.47,South,187,12.9,17.4,24,0.00,,,0.00,WSDL version 420,2013-03-03 16:46:00,
2013-03-03 10:52:00,63.2,25.8,29.47,South,186,14.1,17.0,24,0.00,,,0.00,WSDL version 420,2013-03-03 16:52:00,
2013-03-03 10:58:00,63.3,25.9,29.47,SSW,193,13.6,18.6,24,-99.99,,,-99.99,WSDL version 420,2013-03-03 16:58:00,
2013-03-03 11:04:00,63.0,25.6,29.44,South,180,12.5,18.6,24,-99.99,,,-99.99,WSDL version 420,2013-03-03 17:04:00,
2013-03-03 11:10:00,63.9,26.4,29.44,SSE,159,9.5,16.8,24,0.00,,,0.00,WSDL version 420,2013-03-03 17:10:00,
2013-03-03 11:16:00,65.0,27.4,29.41,South,183,11.9,19.2,24,0.00,,,0.00,WSDL version 420,2013-03-03 17:16:00,
2013-03-03 11:22:00,65.6,27.9,29.41,South,173,12.3,19.2,24,0.00,,,0.00,WSDL version 420,2013-03-03 17:22:00,
2013-03-03 11:28:00,65.4,27.7,29.41,SSW,195,13.6,18.6,24,0.00,,,0.00,WSDL version 420,2013-03-03 17:28:00,
2013-03-03 11:34:00,65.3,27.6,29.44,South,190,11.5,17.9,24,0.00,,,0.00,WSDL version 420,2013-03-03 17:34:00,
2013-03-03 11:40:00,65.1,27.2,29.44,SSW,207,11.1,17.7,23,0.00,,,0.00,WSDL version 420,2013-03-03 17:40:00,
2013-03-03 11:46:00,66.5,27.6,29.44,South,188,12.7,19.7,23,0.00,,,0.00,WSDL version 420,2013-03-03 17:46:00,
2013-03-03 11:52:00,66.4,27.5,29.44,SSW,193,13.1,19.7,23,0.00,,,0.00,WSDL version 420,2013-03-03 17:52:00,
2013-03-03 11:58:00,67.1,28.1,29.44,South,170,10.9,17.7,23,0.00,,,0.00,WSDL version 420,2013-03-03 17:58:00,
2013-03-03 12:04:00,67.2,28.2,29.41,South,176,13.4,17.0,23,0.00,,,0.00,WSDL version 420,2013-03-03 18:04:00,
2013-03-03 12:10:00,67.2,28.2,29.41,SSE,167,9.7,17.0,23,0.00,,,0.00,WSDL version 420,2013-03-03 18:10:00,
2013-03-03 12:16:00,67.2,28.2,29.41,South,189,12.8,21.5,23,0.00,,,0.00,WSDL version 420,2013-03-03 18:16:00,
2013-03-03 12:22:00,67.1,28.1,29.41,SSW,193,13.3,21.5,23,0.00,,,0.00,WSDL version 420,2013-03-03 18:22:00,
2013-03-03 12:28:00,67.5,28.4,29.38,SSW,193,11.4,17.2,23,0.00,,,0.00,WSDL version 420,2013-03-03 18:28:00,
2013-03-03 12:34:00,68.4,29.2,29.38,South,181,9.8,15.9,23,0.00,,,0.00,WSDL version 420,2013-03-03 18:34:00,
2013-03-03 12:40:00,68.8,29.5,29.38,SSW,196,10.7,16.6,23,0.00,,,0.00,WSDL version 420,2013-03-03 18:40:00,
2013-03-03 12:46:00,69.3,30.0,29.38,South,184,10.2,14.8,23,0.00,,,0.00,WSDL version 420,2013-03-03 18:46:00,
2013-03-03 12:52:00,69.5,30.1,29.38,SSW,193,12.0,15.4,23,0.00,,,0.00,WSDL version 420,2013-03-03 18:52:00,
2013-03-03 12:58:00,69.4,29.5,29.38,South,176,10.3,17.7,22,0.00,,,0.00,WSDL version 420,2013-03-03 18:58:00,
2013-03-03 13:04:00,68.9,28.8,29.38,SSE,151,10.1,15.2,23,0.00,,,0.00,WSDL version 420,2013-03-03 19:04:00,
2013-03-03 13:10:00,69.9,29.4,29.38,SSW,211,10.2,15.2,22,0.00,,,0.00,WSDL version 420,2013-03-03 19:10:00,
2013-03-03 13:16:00,68.8,28.5,29.35,South,170,9.8,16.6,22,0.00,,,0.00,WSDL version 420,2013-03-03 19:16:00,
2013-03-03 13:22:00,69.9,29.4,29.35,South,180,11.7,17.4,22,-99.99,,,-99.99,WSDL version 420,2013-03-03 19:22:00,
2013-03-03 13:28:00,70.6,30.0,29.32,SSW,193,10.3,17.7,22,0.00,,,0.00,WSDL version 420,2013-03-03 19:28:00,
2013-03-03 13:34:00,69.3,28.8,29.32,SSW,193,11.2,17.4,22,0.00,,,0.00,WSDL version 420,2013-03-03 19:34:00,
2013-03-03 13:40:00,70.0,29.5,29.32,SSE,164,10.5,15.2,22,0.00,,,0.00,WSDL version 420,2013-03-03 19:40:00,
2013-03-03 13:46:00,68.6,28.3,29.32,South,190,9.4,16.8,22,0.00,,,0.00,WSDL version 420,2013-03-03 19:46:00,
2013-03-03 13:52:00,68.5,28.6,29.32,South,178,9.2,15.4,23,0.00,,,0.00,WSDL version 420,2013-03-03 19:52:00,
2013-03-03 13:58:00,69.6,29.1,29.32,South,183,11.3,15.4,22,-99.99,,,-99.99,WSDL version 420,2013-03-03 19:58:00,
2013-03-03 14:04:00,69.3,28.9,29.32,ESE,119,11.3,19.7,22,-99.99,,,-99.99,WSDL version 420,2013-03-03 20:04:00,
2013-03-03 14:10:00,69.6,29.1,29.32,East,99,9.5,19.9,22,0.00,,,0.00,WSDL version 420,2013-03-03 20:10:00,
2013-03-03 14:16:00,69.7,29.2,29.29,South,189,12.0,19.9,22,0.00,,,0.00,WSDL version 420,2013-03-03 20:16:00,
2013-03-03 14:22:00,69.8,29.3,29.29,SSE,165,11.7,17.4,22,0.00,,,0.00,WSDL version 420,2013-03-03 20:22:00,
2013-03-03 14:28:00,71.1,30.3,29.26,SSW,193,11.8,17.7,22,0.00,,,0.00,WSDL version 420,2013-03-03 20:28:00,
2013-03-03 14:34:00,71.6,30.8,29.26,SSE,151,12.4,19.7,22,0.00,,,0.00,WSDL version 420,2013-03-03 20:34:00,
2013-03-03 14:40:00,72.2,31.3,29.26,SSW,202,14.0,19.7,22,0.00,,,0.00,WSDL version 420,2013-03-03 20:40:00,
2013-03-03 14:46:00,71.9,31.0,29.26,SSW,193,13.4,19.2,22,0.00,,,0.00,WSDL version 420,2013-03-03 20:46:00,
2013-03-03 14:52:00,70.7,30.1,29.26,SE,135,14.3,24.2,22,-99.99,,,-99.99,WSDL version 420,2013-03-03 20:52:00,
2013-03-03 14:58:00,70.0,29.4,29.26,SSE,151,12.2,24.2,22,0.00,,,0.00,WSDL version 420,2013-03-03 20:58:00,
2013-03-03 15:04:00,69.9,29.4,29.26,SSW,199,13.3,18.1,22,0.00,,,0.00,WSDL version 420,2013-03-03 21:04:00,
2013-03-03 15:10:00,70.1,29.5,29.26,South,189,14.0,18.1,22,0.00,,,0.00,WSDL version 420,2013-03-03 21:10:00,
2013-03-03 15:16:00,70.2,29.6,29.26,SSW,199,13.9,19.9,22,0.00,,,0.00,WSDL version 420,2013-03-03 21:16:00,
2013-03-03 15:22:00,70.1,29.5,29.26,South,176,11.7,19.9,22,0.00,,,0.00,WSDL version 420,2013-03-03 21:22:00,
2013-03-03 15:28:00,69.8,29.5,29.26,South,186,11.2,19.7,22,0.00,,,0.00,WSDL version 420,2013-03-03 21:28:00,
2013-03-03 15:34:00,70.3,29.7,29.26,ESE,121,10.5,21.0,22,0.00,,,0.00,WSDL version 420,2013-03-03 21:34:00,
2013-03-03 15:40:00,69.2,29.6,29.26,South,174,11.8,17.7,23,0.00,,,0.00,WSDL version 420,2013-03-03 21:40:00,
2013-03-03 15:46:00,69.4,30.1,29.23,South,181,12.9,19.7,23,0.00,,,0.00,WSDL version 420,2013-03-03 21:46:00,
2013-03-03 15:52:00,69.3,29.9,29.23,SSW,193,12.9,20.8,23,0.00,,,0.00,WSDL version 420,2013-03-03 21:52:00,
2013-03-03 15:58:00,69.4,30.1,29.23,South,174,15.7,20.8,23,0.00,,,0.00,WSDL version 420,2013-03-03 21:58:00,
2013-03-03 16:04:00,69.4,30.1,29.21,South,189,15.6,20.1,23,0.00,,,0.00,WSDL version 420,2013-03-03 22:04:00,
2013-03-03 16:10:00,69.2,29.9,29.21,South,180,14.8,19.5,23,0.00,,,0.00,WSDL version 420,2013-03-03 22:10:00,
2013-03-03 16:16:00,69.2,29.9,29.23,South,173,13.2,21.5,23,-99.99,,,-99.99,WSDL version 420,2013-03-03 22:16:00,
2013-03-03 16:22:00,68.9,29.6,29.23,South,180,13.2,18.8,23,-99.99,,,-99.99,WSDL version 420,2013-03-03 22:22:00,
2013-03-03 16:28:00,69.2,29.8,29.23,South,178,14.0,17.4,23,0.00,,,0.00,WSDL version 420,2013-03-03 22:28:00,
2013-03-03 16:34:00,69.4,30.0,29.21,South,189,12.3,17.7,23,0.00,,,0.00,WSDL version 420,2013-03-03 22:34:00,
2013-03-03 16:40:00,68.7,29.5,29.21,South,183,14.5,19.5,23,0.00,,,0.00,WSDL version 420,2013-03-03 22:40:00,
2013-03-03 16:46:00,68.8,29.6,29.21,SSW,193,16.9,22.4,23,0.00,,,0.00,WSDL version 420,2013-03-03 22:46:00,
2013-03-03 16:52:00,69.0,29.7,29.21,SSE,164,11.6,22.4,23,0.00,,,0.00,WSDL version 420,2013-03-03 22:52:00,
2013-03-03 16:58:00,68.9,29.6,29.21,South,174,10.7,19.7,23,0.00,,,0.00,WSDL version 420,2013-03-03 22:58:00,
2013-03-03 17:04:00,68.0,28.9,29.21,South,176,11.7,16.8,23,0.00,,,0.00,WSDL version 420,2013-03-03 23:04:00,
2013-03-03 17:10:00,67.3,28.2,29.21,South,170,11.0,22.4,23,0.00,,,0.00,WSDL version 420,2013-03-03 23:10:00,
2013-03-03 17:16:00,67.0,28.2,29.21,South,179,10.8,22.4,23,0.00,,,0.00,WSDL version 420,2013-03-03 23:16:00,
2013-03-03 17:22:00,66.6,28.7,29.21,South,173,9.8,17.2,24,0.00,,,0.00,WSDL version 420,2013-03-03 23:22:00,
2013-03-03 17:28:00,66.6,28.7,29.21,SSE,167,11.8,19.7,24,0.00,,,0.00,WSDL version 420,2013-03-03 23:28:00,
2013-03-03 17:34:00,66.2,28.3,29.21,SSE,148,8.8,19.7,24,0.00,,,0.00,WSDL version 420,2013-03-03 23:34:00,
2013-03-03 17:40:00,65.9,28.1,29.21,South,176,9.6,14.8,24,0.00,,,0.00,WSDL version 420,2013-03-03 23:40:00,
2013-03-03 17:46:00,-999.0,-99.9,29.18,South,173,13.1,14.8,-999,0.00,,,0.00,WSDL version 420,2013-03-03 23:46:00,
2013-03-03 17:52:00,65.5,28.1,29.18,South,181,10.6,19.0,25,0.00,,,0.00,WSDL version 420,2013-03-03 23:52:00,
2013-03-03 17:58:00,65.2,28.5,29.18,SSE,159,7.3,19.0,25,-99.99,,,-99.99,WSDL version 420,2013-03-03 23:58:00,
2013-03-03 18:04:00,64.8,28.2,29.21,South,174,7.5,15.9,25,0.00,,,0.00,WSDL version 420,2013-03-04 00:04:00,
2013-03-03 18:10:00,64.3,27.8,29.21,South,176,9.0,15.9,25,0.00,,,0.00,WSDL version 420,2013-03-04 00:10:00,
2013-03-03 18:16:00,64.2,27.7,29.21,SSE,159,8.8,16.8,25,-99.99,,,-99.99,WSDL version 420,2013-03-04 00:16:00,
2013-03-03 18:22:00,63.8,28.2,29.21,SSE,160,8.6,17.9,26,0.00,,,0.00,WSDL version 420,2013-03-04 00:22:00,
2013-03-03 18:28:00,63.5,28.1,29.21,South,170,10.0,19.7,26,0.00,,,0.00,WSDL version 420,2013-03-04 00:28:00,
2013-03-03 18:34:00,63.3,27.9,29.21,SE,142,7.5,19.7,26,0.00,,,0.00,WSDL version 420,2013-03-04 00:34:00,
2013-03-03 18:40:00,63.1,27.7,29.21,ESE,103,8.4,14.3,26,0.00,,,0.00,WSDL version 420,2013-03-04 00:40:00,
2013-03-03 18:46:00,62.9,27.5,29.18,ESE,121,12.8,19.0,26,0.00,,,0.00,WSDL version 420,2013-03-04 00:46:00,
2013-03-03 18:52:00,-999.0,-99.9,29.18,SE,140,11.1,19.0,-999,0.00,,,0.00,WSDL version 420,2013-03-04 00:52:00,
2013-03-03 18:58:00,62.5,28.1,29.18,SE,125,15.9,19.0,27,0.00,,,0.00,WSDL version 420,2013-03-04 00:58:00,
2013-03-03 19:04:00,62.0,28.1,29.18,ESE,119,14.1,19.0,28,0.00,,,0.00,WSDL version 420,2013-03-04 01:04:00,
2013-03-03 19:10:00,61.3,28.0,29.18,ESE,117,13.8,17.7,28,0.00,,,0.00,WSDL version 420,2013-03-04 01:10:00,
2013-03-03 19:16:00,61.1,28.1,29.18,ESE,121,15.2,19.9,29,0.00,,,0.00,WSDL version 420,2013-03-04 01:16:00,
2013-03-03 19:22:00,60.8,28.6,29.18,SE,133,15.5,20.4,30,0.00,,,0.00,WSDL version 420,2013-03-04 01:22:00,
2013-03-03 19:28:00,60.7,28.9,29.18,ESE,121,15.2,21.0,30,0.00,,,0.00,WSDL version 420,2013-03-04 01:28:00,
2013-03-03 19:34:00,60.6,29.0,29.18,SE,129,13.6,18.6,30,0.00,,,0.00,WSDL version 420,2013-03-04 01:34:00,
2013-03-03 19:40:00,60.6,29.5,29.18,SE,144,16.5,23.5,31,0.00,,,0.00,WSDL version 420,2013-03-04 01:40:00,
2013-03-03 19:46:00,60.6,29.8,29.18,SE,128,16.6,23.5,31,0.00,,,0.00,WSDL version 420,2013-03-04 01:46:00,
2013-03-03 19:52:00,60.4,29.6,29.18,SE,133,16.7,21.9,31,0.00,,,0.00,WSDL version 420,2013-03-04 01:52:00,
2013-03-03 19:58:00,60.4,29.8,29.18,ESE,117,16.9,21.9,32,0.00,,,0.00,WSDL version 420,2013-03-04 01:58:00,
2013-03-03 20:04:00,60.5,30.3,29.15,SE,133,15.0,24.2,32,0.00,,,0.00,WSDL version 420,2013-03-04 02:04:00,
2013-03-03 20:10:00,60.4,30.5,29.15,ESE,121,18.5,24.6,32,0.00,,,0.00,WSDL version 420,2013-03-04 02:10:00,
2013-03-03 20:16:00,60.3,30.3,29.18,ESE,117,16.2,22.6,32,0.00,,,0.00,WSDL version 420,2013-03-04 02:16:00,
2013-03-03 20:22:00,60.3,30.3,29.18,ESE,119,16.5,22.1,32,0.00,,,0.00,WSDL version 420,2013-03-04 02:22:00,
2013-03-03 20:28:00,60.2,30.4,29.15,ESE,114,10.9,23.0,33,0.00,,,0.00,WSDL version 420,2013-03-04 02:28:00,
2013-03-03 20:34:00,60.1,30.9,29.15,SE,131,16.4,21.0,33,0.00,,,0.00,WSDL version 420,2013-03-04 02:34:00,
2013-03-03 20:40:00,60.1,30.9,29.15,ESE,119,13.5,21.3,33,0.00,,,0.00,WSDL version 420,2013-03-04 02:40:00,
2013-03-03 20:46:00,60.1,31.3,29.15,ESE,109,10.2,21.3,34,0.00,,,0.00,WSDL version 420,2013-03-04 02:46:00,
2013-03-03 20:52:00,60.3,31.8,29.15,SE,130,13.3,19.2,34,0.00,,,0.00,WSDL version 420,2013-03-04 02:52:00,
2013-03-03 20:58:00,60.3,31.9,29.15,East,93,9.4,19.9,34,0.00,,,0.00,WSDL version 420,2013-03-04 02:58:00,
2013-03-03 21:04:00,60.3,31.8,29.15,SE,131,9.5,19.9,34,0.00,,,0.00,WSDL version 420,2013-03-04 03:04:00,
2013-03-03 21:10:00,60.5,32.0,29.15,SE,136,11.6,19.2,34,0.00,,,0.00,WSDL version 420,2013-03-04 03:10:00,
2013-03-03 21:16:00,60.6,32.1,29.15,SE,131,8.9,19.7,34,0.00,,,0.00,WSDL version 420,2013-03-04 03:16:00,
2013-03-03 21:22:00,60.7,32.2,29.15,East,98,11.3,17.2,34,0.00,,,0.00,WSDL version 420,2013-03-04 03:22:00,
2013-03-03 21:28:00,60.8,32.3,29.15,East,100,11.2,17.2,34,0.00,,,0.00,WSDL version 420,2013-03-04 03:28:00,
2013-03-03 21:34:00,60.8,32.2,29.15,ESE,109,10.2,17.7,34,0.00,,,0.00,WSDL version 420,2013-03-04 03:34:00,
2013-03-03 21:40:00,60.8,32.3,29.15,SE,144,10.5,19.5,34,0.00,,,0.00,WSDL version 420,2013-03-04 03:40:00,
2013-03-03 21:46:00,60.8,32.4,29.15,ESE,119,12.0,20.1,34,0.00,,,0.00,WSDL version 420,2013-03-04 03:46:00,
2013-03-03 21:52:00,60.7,32.7,29.15,ESE,122,14.3,20.1,35,0.00,,,0.00,WSDL version 420,2013-03-04 03:52:00,
2013-03-03 21:58:00,60.6,32.8,29.15,ESE,111,13.4,22.8,35,0.00,,,0.00,WSDL version 420,2013-03-04 03:58:00,
2013-03-03 22:04:00,60.4,32.7,29.15,East,88,11.9,22.4,35,0.00,,,0.00,WSDL version 420,2013-03-04 04:04:00,
2013-03-03 22:10:00,60.4,33.4,29.15,ESE,121,11.4,20.4,36,0.00,,,0.00,WSDL version 420,2013-03-04 04:10:00,
2013-03-03 22:16:00,60.1,33.1,29.12,ESE,106,11.3,18.8,36,0.00,,,0.00,WSDL version 420,2013-03-04 04:16:00,
2013-03-03 22:22:00,59.9,33.2,29.12,SSE,150,12.0,22.6,37,-99.99,,,-99.99,WSDL version 420,2013-03-04 04:22:00,
2013-03-03 22:28:00,59.7,33.4,29.12,SSE,166,8.3,22.6,37,0.00,,,0.00,WSDL version 420,2013-03-04 04:28:00,
2013-03-03 22:34:00,59.5,33.5,29.15,ESE,110,8.8,19.7,38,0.00,,,0.00,WSDL version 420,2013-03-04 04:34:00,
2013-03-03 22:40:00,59.3,33.7,29.15,ESE,107,7.9,19.7,38,0.00,,,0.00,WSDL version 420,2013-03-04 04:40:00,
2013-03-03 22:46:00,59.2,34.3,29.15,ESE,122,8.1,17.7,39,0.00,,,0.00,WSDL version 420,2013-03-04 04:46:00,
2013-03-03 22:52:00,59.1,34.8,29.15,SSE,154,8.7,17.7,40,0.00,,,0.00,WSDL version 420,2013-03-04 04:52:00,
2013-03-03 22:58:00,58.9,35.5,29.15,South,186,8.3,16.6,42,0.00,,,0.00,WSDL version 420,2013-03-04 04:58:00,
2013-03-03 23:01:00,58.9,35.7,29.15,SSE,157,9.3,16.6,42,0.00,,,0.00,WSDL version 420,2013-03-04 05:01:00,
2013-03-03 23:07:00,58.9,36.6,29.15,South,170,11.7,18.6,44,0.00,,,0.00,WSDL version 420,2013-03-04 05:07:00,
2013-03-03 23:13:00,58.7,37.2,29.15,SSW,211,10.9,17.2,45,0.00,,,0.00,WSDL version 420,2013-03-04 05:13:00,
2013-03-03 23:19:00,-999.0,-99.9,29.15,SSE,161,14.8,17.2,-999,0.00,,,0.00,WSDL version 420,2013-03-04 05:19:00,
2013-03-03 23:25:00,58.5,37.6,29.15,ESE,103,9.6,16.8,46,0.00,,,0.00,WSDL version 420,2013-03-04 05:25:00,
2013-03-03 23:31:00,58.5,37.8,29.15,SSE,154,12.0,19.9,46,0.00,,,0.00,WSDL version 420,2013-03-04 05:31:00,
2013-03-03 23:37:00,58.2,38.0,29.15,SSW,198,10.0,19.5,47,0.00,,,0.00,WSDL version 420,2013-03-04 05:37:00,
2013-03-03 23:43:00,58.3,38.2,29.15,SSE,167,12.6,19.0,47,0.00,,,0.00,WSDL version 420,2013-03-04 05:43:00,
2013-03-03 23:49:00,58.2,38.6,29.15,South,180,12.2,21.0,48,0.00,,,0.00,WSDL version 420,2013-03-04 05:49:00,
2013-03-03 23:55:00,58.2,38.6,29.15,South,185,13.4,18.8,48,0.00,,,0.00,WSDL version 420,2013-03-04 05:55:00,